sensor_id;sensor_type;location;lat;lon;timestamp;temperature;humidity
47168;DHT22;32931;47.778;17.806;2022-12-29T00:01:29;3.70;99.90
47168;DHT22;32931;47.778;17.806;2022-12-29T00:03:55;3.70;99.90
47168;DHT22;32931;47.778;17.806;2022-12-29T00:06:21;3.70;99.90
47168;DHT22;32931;47.778;17.806;2022-12-29T00:08:48;3.70;99.90
47168;DHT22;32931;47.778;17.806;2022-12-29T00:11:16;3.70;99.90
47168;DHT22;32931;47.778;17.806;2022-12-29T00:13:43;3.70;99.90
47168;DHT22;32931;47.778;17.806;2022-12-29T00:16:29;3.70;99.90
47168;DHT22;32931;47.778;17.806;2022-12-29T00:18:56;3.70;99.90
47168;DHT22;32931;47.778;17.806;2022-12-29T00:21:24;3.70;99.90
47168;DHT22;32931;47.778;17.806;2022-12-29T00:24:19;3.70;99.90
47168;DHT22;32931;47.778;17.806;2022-12-29T00:29:49;3.70;99.90
47168;DHT22;32931;47.778;17.806;2022-12-29T00:32:33;3.70;99.90
47168;DHT22;32931;47.778;17.806;2022-12-29T00:35:33;3.70;99.90
47168;DHT22;32931;47.778;17.806;2022-12-29T00:38:03;3.70;99.90
47168;DHT22;32931;47.778;17.806;2022-12-29T00:40:49;3.60;99.90
47168;DHT22;32931;47.778;17.806;2022-12-29T00:43:34;3.70;99.90
47168;DHT22;32931;47.778;17.806;2022-12-29T00:46:18;3.60;99.90
47168;DHT22;32931;47.778;17.806;2022-12-29T00:48:44;3.70;99.90
47168;DHT22;32931;47.778;17.806;2022-12-29T00:51:29;3.60;99.90
47168;DHT22;32931;47.778;17.806;2022-12-29T00:53:55;3.70;99.90
47168;DHT22;32931;47.778;17.806;2022-12-29T00:56:21;3.70;99.90
47168;DHT22;32931;47.778;17.806;2022-12-29T00:58:47;3.60;99.90
47168;DHT22;32931;47.778;17.806;2022-12-29T01:01:14;3.60;99.90
47168;DHT22;32931;47.778;17.806;2022-12-29T01:03:40;3.70;99.90
47168;DHT22;32931;47.778;17.806;2022-12-29T01:06:08;3.60;99.90
47168;DHT22;32931;47.778;17.806;2022-12-29T01:08:35;3.60;99.90
47168;DHT22;32931;47.778;17.806;2022-12-29T01:11:04;3.60;99.90
47168;DHT22;32931;47.778;17.806;2022-12-29T01:13:31;3.60;99.90
47168;DHT22;32931;47.778;17.806;2022-12-29T01:15:57;3.60;99.90
47168;DHT22;32931;47.778;17.806;2022-12-29T01:18:25;3.60;99.90
47168;DHT22;32931;47.778;17.806;2022-12-29T01:20:57;3.60;99.90
47168;DHT22;32931;47.778;17.806;2022-12-29T01:23:23;3.60;99.90
47168;DHT22;32931;47.778;17.806;2022-12-29T01:25:49;3.60;99.90
47168;DHT22;32931;47.778;17.806;2022-12-29T01:28:16;3.60;99.90
47168;DHT22;32931;47.778;17.806;2022-12-29T01:30:42;3.60;99.90
47168;DHT22;32931;47.778;17.806;2022-12-29T01:33:08;3.60;99.90
47168;DHT22;32931;47.778;17.806;2022-12-29T01:35:34;3.60;99.90
47168;DHT22;32931;47.778;17.806;2022-12-29T01:38:00;3.60;99.90
47168;DHT22;32931;47.778;17.806;2022-12-29T01:40:28;3.60;99.90
47168;DHT22;32931;47.778;17.806;2022-12-29T01:42:54;3.60;99.90
47168;DHT22;32931;47.778;17.806;2022-12-29T01:45:21;3.60;99.90
47168;DHT22;32931;47.778;17.806;2022-12-29T01:47:57;3.50;99.90
47168;DHT22;32931;47.778;17.806;2022-12-29T01:50:32;3.50;99.90
47168;DHT22;32931;47.778;17.806;2022-12-29T01:53:11;3.50;99.90
47168;DHT22;32931;47.778;17.806;2022-12-29T01:55:44;3.50;99.90
47168;DHT22;32931;47.778;17.806;2022-12-29T01:58:12;3.50;99.90
47168;DHT22;32931;47.778;17.806;2022-12-29T02:00:40;3.50;99.90
47168;DHT22;32931;47.778;17.806;2022-12-29T02:03:07;3.50;99.90
47168;DHT22;32931;47.778;17.806;2022-12-29T02:05:44;3.50;99.90
47168;DHT22;32931;47.778;17.806;2022-12-29T02:08:12;3.50;99.90
47168;DHT22;32931;47.778;17.806;2022-12-29T02:10:39;3.60;99.90
47168;DHT22;32931;47.778;17.806;2022-12-29T02:13:06;3.60;99.90
47168;DHT22;32931;47.778;17.806;2022-12-29T02:21:48;3.50;99.90
47168;DHT22;32931;47.778;17.806;2022-12-29T02:41:05;3.60;99.90
47168;DHT22;32931;47.778;17.806;2022-12-29T02:49:15;3.60;99.90
47168;DHT22;32931;47.778;17.806;2022-12-29T02:51:55;3.60;99.90
47168;DHT22;32931;47.778;17.806;2022-12-29T02:54:24;3.60;99.90
47168;DHT22;32931;47.778;17.806;2022-12-29T02:57:32;3.60;99.90
47168;DHT22;32931;47.778;17.806;2022-12-29T03:03:04;3.60;99.90
47168;DHT22;32931;47.778;17.806;2022-12-29T03:11:09;3.60;99.90
47168;DHT22;32931;47.778;17.806;2022-12-29T03:14:18;3.60;99.90
47168;DHT22;32931;47.778;17.806;2022-12-29T03:17:11;3.50;99.90
47168;DHT22;32931;47.778;17.806;2022-12-29T03:19:42;3.50;99.90
47168;DHT22;32931;47.778;17.806;2022-12-29T03:22:17;3.50;99.90
47168;DHT22;32931;47.778;17.806;2022-12-29T03:25:03;3.50;99.90
47168;DHT22;32931;47.778;17.806;2022-12-29T03:27:46;3.50;99.90
47168;DHT22;32931;47.778;17.806;2022-12-29T03:30:14;3.50;99.90
47168;DHT22;32931;47.778;17.806;2022-12-29T03:32:52;3.50;99.90
47168;DHT22;32931;47.778;17.806;2022-12-29T03:35:22;3.40;99.90
47168;DHT22;32931;47.778;17.806;2022-12-29T03:38:19;3.50;99.90
47168;DHT22;32931;47.778;17.806;2022-12-29T03:40:53;3.40;99.90
47168;DHT22;32931;47.778;17.806;2022-12-29T03:43:21;3.40;99.90
47168;DHT22;32931;47.778;17.806;2022-12-29T03:45:47;3.40;99.90
47168;DHT22;32931;47.778;17.806;2022-12-29T03:48:14;3.40;99.90
47168;DHT22;32931;47.778;17.806;2022-12-29T03:50:40;3.40;99.90
47168;DHT22;32931;47.778;17.806;2022-12-29T03:53:06;3.30;99.90
47168;DHT22;32931;47.778;17.806;2022-12-29T03:55:33;3.30;99.90
47168;DHT22;32931;47.778;17.806;2022-12-29T03:57:59;3.30;99.90
47168;DHT22;32931;47.778;17.806;2022-12-29T04:00:25;3.30;99.90
47168;DHT22;32931;47.778;17.806;2022-12-29T04:02:51;3.20;99.90
47168;DHT22;32931;47.778;17.806;2022-12-29T04:05:17;3.20;99.90
47168;DHT22;32931;47.778;17.806;2022-12-29T04:07:43;3.20;99.90
47168;DHT22;32931;47.778;17.806;2022-12-29T04:10:10;3.20;99.90
47168;DHT22;32931;47.778;17.806;2022-12-29T04:12:36;3.10;99.90
47168;DHT22;32931;47.778;17.806;2022-12-29T04:15:02;3.10;99.90
47168;DHT22;32931;47.778;17.806;2022-12-29T04:17:28;3.10;99.90
47168;DHT22;32931;47.778;17.806;2022-12-29T04:19:55;3.10;99.90
47168;DHT22;32931;47.778;17.806;2022-12-29T04:22:41;3.10;99.90
47168;DHT22;32931;47.778;17.806;2022-12-29T04:25:07;3.10;99.90
47168;DHT22;32931;47.778;17.806;2022-12-29T04:27:33;3.10;99.90
47168;DHT22;32931;47.778;17.806;2022-12-29T04:29:59;3.10;99.90
47168;DHT22;32931;47.778;17.806;2022-12-29T04:32:26;3.10;99.90
47168;DHT22;32931;47.778;17.806;2022-12-29T04:34:52;3.10;99.90
47168;DHT22;32931;47.778;17.806;2022-12-29T04:37:18;3.10;99.90
47168;DHT22;32931;47.778;17.806;2022-12-29T04:39:44;3.10;99.90
47168;DHT22;32931;47.778;17.806;2022-12-29T04:42:10;3.10;99.90
47168;DHT22;32931;47.778;17.806;2022-12-29T04:44:36;3.10;99.90
47168;DHT22;32931;47.778;17.806;2022-12-29T04:47:02;3.10;99.90
47168;DHT22;32931;47.778;17.806;2022-12-29T04:49:28;3.10;99.90
47168;DHT22;32931;47.778;17.806;2022-12-29T04:51:55;3.10;99.90
47168;DHT22;32931;47.778;17.806;2022-12-29T04:54:21;3.10;99.90
47168;DHT22;32931;47.778;17.806;2022-12-29T04:56:47;3.10;99.90
47168;DHT22;32931;47.778;17.806;2022-12-29T04:59:13;3.10;99.90
47168;DHT22;32931;47.778;17.806;2022-12-29T05:01:39;3.20;99.90
47168;DHT22;32931;47.778;17.806;2022-12-29T05:04:05;3.20;99.90
47168;DHT22;32931;47.778;17.806;2022-12-29T05:06:31;3.20;99.90
47168;DHT22;32931;47.778;17.806;2022-12-29T05:08:57;3.20;99.90
47168;DHT22;32931;47.778;17.806;2022-12-29T05:11:24;3.20;99.90
47168;DHT22;32931;47.778;17.806;2022-12-29T05:13:50;3.30;99.90
47168;DHT22;32931;47.778;17.806;2022-12-29T05:16:16;3.20;99.90
47168;DHT22;32931;47.778;17.806;2022-12-29T05:18:42;3.30;99.90
47168;DHT22;32931;47.778;17.806;2022-12-29T05:21:08;3.30;99.90
47168;DHT22;32931;47.778;17.806;2022-12-29T05:23:34;3.30;99.90
47168;DHT22;32931;47.778;17.806;2022-12-29T05:26:01;3.30;99.90
47168;DHT22;32931;47.778;17.806;2022-12-29T05:28:27;3.30;99.90
47168;DHT22;32931;47.778;17.806;2022-12-29T05:30:53;3.30;99.90
47168;DHT22;32931;47.778;17.806;2022-12-29T05:33:19;3.30;99.90
47168;DHT22;32931;47.778;17.806;2022-12-29T05:35:46;3.30;99.90
47168;DHT22;32931;47.778;17.806;2022-12-29T05:38:12;3.30;99.90
47168;DHT22;32931;47.778;17.806;2022-12-29T05:40:38;3.30;99.90
47168;DHT22;32931;47.778;17.806;2022-12-29T05:43:04;3.30;99.90
47168;DHT22;32931;47.778;17.806;2022-12-29T05:45:31;3.30;99.90
47168;DHT22;32931;47.778;17.806;2022-12-29T05:47:57;3.30;99.90
47168;DHT22;32931;47.778;17.806;2022-12-29T05:50:23;3.30;99.90
47168;DHT22;32931;47.778;17.806;2022-12-29T05:52:49;3.30;99.90
47168;DHT22;32931;47.778;17.806;2022-12-29T05:55:16;3.40;99.90
47168;DHT22;32931;47.778;17.806;2022-12-29T05:57:43;3.40;99.90
47168;DHT22;32931;47.778;17.806;2022-12-29T06:00:09;3.40;99.90
47168;DHT22;32931;47.778;17.806;2022-12-29T06:02:35;3.50;99.90
47168;DHT22;32931;47.778;17.806;2022-12-29T06:05:02;3.40;99.90
47168;DHT22;32931;47.778;17.806;2022-12-29T06:07:28;3.40;99.90
47168;DHT22;32931;47.778;17.806;2022-12-29T06:09:54;3.40;99.90
47168;DHT22;32931;47.778;17.806;2022-12-29T06:12:20;3.40;99.90
47168;DHT22;32931;47.778;17.806;2022-12-29T06:14:46;3.30;99.90
47168;DHT22;32931;47.778;17.806;2022-12-29T06:17:13;3.20;99.90
47168;DHT22;32931;47.778;17.806;2022-12-29T06:19:39;3.20;99.90
47168;DHT22;32931;47.778;17.806;2022-12-29T06:22:05;3.10;99.90
47168;DHT22;32931;47.778;17.806;2022-12-29T06:24:31;3.10;99.90
47168;DHT22;32931;47.778;17.806;2022-12-29T06:26:57;3.00;99.90
47168;DHT22;32931;47.778;17.806;2022-12-29T06:29:23;2.90;99.90
47168;DHT22;32931;47.778;17.806;2022-12-29T06:31:49;2.90;99.90
47168;DHT22;32931;47.778;17.806;2022-12-29T06:34:16;2.80;99.90
47168;DHT22;32931;47.778;17.806;2022-12-29T06:36:43;2.80;99.90
47168;DHT22;32931;47.778;17.806;2022-12-29T06:39:10;2.80;99.90
47168;DHT22;32931;47.778;17.806;2022-12-29T06:41:36;2.70;99.90
47168;DHT22;32931;47.778;17.806;2022-12-29T06:44:03;2.70;99.90
47168;DHT22;32931;47.778;17.806;2022-12-29T06:46:29;2.70;99.90
47168;DHT22;32931;47.778;17.806;2022-12-29T06:48:55;2.60;99.90
47168;DHT22;32931;47.778;17.806;2022-12-29T06:51:22;2.60;99.90
47168;DHT22;32931;47.778;17.806;2022-12-29T06:53:48;2.60;99.90
47168;DHT22;32931;47.778;17.806;2022-12-29T06:56:15;2.60;99.90
47168;DHT22;32931;47.778;17.806;2022-12-29T06:58:41;2.50;99.90
47168;DHT22;32931;47.778;17.806;2022-12-29T07:01:07;2.50;99.90
47168;DHT22;32931;47.778;17.806;2022-12-29T07:03:33;2.50;99.90
47168;DHT22;32931;47.778;17.806;2022-12-29T07:05:59;2.50;99.90
47168;DHT22;32931;47.778;17.806;2022-12-29T07:08:25;2.60;99.90
47168;DHT22;32931;47.778;17.806;2022-12-29T07:10:52;2.50;99.90
47168;DHT22;32931;47.778;17.806;2022-12-29T07:13:18;2.60;99.90
47168;DHT22;32931;47.778;17.806;2022-12-29T07:15:45;2.60;99.90
47168;DHT22;32931;47.778;17.806;2022-12-29T07:18:11;2.60;99.90
47168;DHT22;32931;47.778;17.806;2022-12-29T07:20:37;2.60;99.90
47168;DHT22;32931;47.778;17.806;2022-12-29T07:23:03;2.60;99.90
47168;DHT22;32931;47.778;17.806;2022-12-29T07:25:29;2.60;99.90
47168;DHT22;32931;47.778;17.806;2022-12-29T07:27:55;2.60;99.90
47168;DHT22;32931;47.778;17.806;2022-12-29T07:30:22;2.60;99.90
47168;DHT22;32931;47.778;17.806;2022-12-29T07:32:48;2.60;99.90
47168;DHT22;32931;47.778;17.806;2022-12-29T07:35:14;2.60;99.90
47168;DHT22;32931;47.778;17.806;2022-12-29T07:37:40;2.60;99.90
47168;DHT22;32931;47.778;17.806;2022-12-29T07:40:08;2.60;99.90
47168;DHT22;32931;47.778;17.806;2022-12-29T07:42:34;2.60;99.90
47168;DHT22;32931;47.778;17.806;2022-12-29T07:45:01;2.70;99.90
47168;DHT22;32931;47.778;17.806;2022-12-29T07:47:27;2.70;99.90
47168;DHT22;32931;47.778;17.806;2022-12-29T07:49:53;2.70;99.90
47168;DHT22;32931;47.778;17.806;2022-12-29T07:52:19;2.80;99.90
47168;DHT22;32931;47.778;17.806;2022-12-29T07:54:46;2.70;99.90
47168;DHT22;32931;47.778;17.806;2022-12-29T07:57:12;2.80;99.90
47168;DHT22;32931;47.778;17.806;2022-12-29T07:59:39;2.90;99.90
47168;DHT22;32931;47.778;17.806;2022-12-29T08:02:06;2.90;99.90
47168;DHT22;32931;47.778;17.806;2022-12-29T08:04:32;2.90;99.90
47168;DHT22;32931;47.778;17.806;2022-12-29T08:06:58;3.00;99.90
47168;DHT22;32931;47.778;17.806;2022-12-29T08:09:24;3.00;99.90
47168;DHT22;32931;47.778;17.806;2022-12-29T08:11:51;3.10;99.90
47168;DHT22;32931;47.778;17.806;2022-12-29T08:14:17;3.10;99.90
47168;DHT22;32931;47.778;17.806;2022-12-29T08:16:44;3.10;99.90
47168;DHT22;32931;47.778;17.806;2022-12-29T08:19:11;3.20;99.90
47168;DHT22;32931;47.778;17.806;2022-12-29T08:21:37;3.20;99.90
47168;DHT22;32931;47.778;17.806;2022-12-29T08:24:04;3.30;99.90
47168;DHT22;32931;47.778;17.806;2022-12-29T08:26:30;3.30;99.90
47168;DHT22;32931;47.778;17.806;2022-12-29T08:28:56;3.30;99.90
47168;DHT22;32931;47.778;17.806;2022-12-29T08:31:23;3.40;99.90
47168;DHT22;32931;47.778;17.806;2022-12-29T08:33:50;3.40;99.90
47168;DHT22;32931;47.778;17.806;2022-12-29T08:36:16;3.50;99.90
47168;DHT22;32931;47.778;17.806;2022-12-29T08:38:42;3.50;99.90
47168;DHT22;32931;47.778;17.806;2022-12-29T08:41:08;3.60;99.90
47168;DHT22;32931;47.778;17.806;2022-12-29T08:43:34;3.60;99.90
47168;DHT22;32931;47.778;17.806;2022-12-29T08:46:01;3.70;99.90
47168;DHT22;32931;47.778;17.806;2022-12-29T08:48:27;3.80;99.90
47168;DHT22;32931;47.778;17.806;2022-12-29T08:50:53;3.80;99.90
47168;DHT22;32931;47.778;17.806;2022-12-29T08:53:19;3.80;99.90
47168;DHT22;32931;47.778;17.806;2022-12-29T08:55:46;3.90;99.90
47168;DHT22;32931;47.778;17.806;2022-12-29T08:58:13;4.00;99.90
47168;DHT22;32931;47.778;17.806;2022-12-29T09:00:41;4.00;99.90
47168;DHT22;32931;47.778;17.806;2022-12-29T09:03:07;4.00;99.90
47168;DHT22;32931;47.778;17.806;2022-12-29T09:05:34;4.10;99.90
47168;DHT22;32931;47.778;17.806;2022-12-29T09:08:00;4.20;99.90
47168;DHT22;32931;47.778;17.806;2022-12-29T09:10:26;4.20;99.90
47168;DHT22;32931;47.778;17.806;2022-12-29T09:12:52;4.30;99.90
47168;DHT22;32931;47.778;17.806;2022-12-29T09:15:18;4.30;99.90
47168;DHT22;32931;47.778;17.806;2022-12-29T09:17:45;4.40;99.90
47168;DHT22;32931;47.778;17.806;2022-12-29T09:20:18;4.40;99.90
47168;DHT22;32931;47.778;17.806;2022-12-29T09:22:45;4.50;99.90
47168;DHT22;32931;47.778;17.806;2022-12-29T09:25:12;4.50;99.90
47168;DHT22;32931;47.778;17.806;2022-12-29T09:27:39;4.60;99.90
47168;DHT22;32931;47.778;17.806;2022-12-29T09:30:08;4.60;99.90
47168;DHT22;32931;47.778;17.806;2022-12-29T09:32:34;4.70;99.90
47168;DHT22;32931;47.778;17.806;2022-12-29T09:35:01;4.70;99.90
47168;DHT22;32931;47.778;17.806;2022-12-29T09:37:27;4.80;99.90
47168;DHT22;32931;47.778;17.806;2022-12-29T09:39:54;4.80;99.90
47168;DHT22;32931;47.778;17.806;2022-12-29T09:47:30;4.90;99.90
47168;DHT22;32931;47.778;17.806;2022-12-29T09:52:30;5.00;99.90
47168;DHT22;32931;47.778;17.806;2022-12-29T09:57:34;5.20;99.90
47168;DHT22;32931;47.778;17.806;2022-12-29T10:00:32;5.20;99.90
47168;DHT22;32931;47.778;17.806;2022-12-29T10:03:09;5.30;99.90
47168;DHT22;32931;47.778;17.806;2022-12-29T10:06:21;5.30;99.90
47168;DHT22;32931;47.778;17.806;2022-12-29T10:08:57;5.40;99.90
47168;DHT22;32931;47.778;17.806;2022-12-29T10:14:29;5.50;99.90
47168;DHT22;32931;47.778;17.806;2022-12-29T10:17:05;5.60;99.90
47168;DHT22;32931;47.778;17.806;2022-12-29T10:24:55;5.70;99.90
47168;DHT22;32931;47.778;17.806;2022-12-29T10:27:24;5.80;99.90
47168;DHT22;32931;47.778;17.806;2022-12-29T10:29:56;5.80;99.90
47168;DHT22;32931;47.778;17.806;2022-12-29T10:32:39;5.90;99.90
47168;DHT22;32931;47.778;17.806;2022-12-29T10:35:24;5.90;99.90
47168;DHT22;32931;47.778;17.806;2022-12-29T10:38:25;6.00;99.90
47168;DHT22;32931;47.778;17.806;2022-12-29T10:41:12;6.10;99.90
47168;DHT22;32931;47.778;17.806;2022-12-29T10:43:51;6.10;99.90
47168;DHT22;32931;47.778;17.806;2022-12-29T10:46:37;6.20;99.90
47168;DHT22;32931;47.778;17.806;2022-12-29T10:49:06;6.20;99.90
47168;DHT22;32931;47.778;17.806;2022-12-29T10:51:35;6.30;99.90
47168;DHT22;32931;47.778;17.806;2022-12-29T10:54:06;6.30;99.90
47168;DHT22;32931;47.778;17.806;2022-12-29T10:59:12;6.40;99.90
47168;DHT22;32931;47.778;17.806;2022-12-29T11:05:02;6.50;99.90
47168;DHT22;32931;47.778;17.806;2022-12-29T11:07:30;6.50;99.90
47168;DHT22;32931;47.778;17.806;2022-12-29T11:10:18;6.50;99.90
47168;DHT22;32931;47.778;17.806;2022-12-29T11:13:12;6.60;99.90
47168;DHT22;32931;47.778;17.806;2022-12-29T11:15:47;6.60;99.90
47168;DHT22;32931;47.778;17.806;2022-12-29T11:18:31;6.70;99.90
47168;DHT22;32931;47.778;17.806;2022-12-29T11:21:07;6.70;99.90
47168;DHT22;32931;47.778;17.806;2022-12-29T11:24:00;6.70;99.90
47168;DHT22;32931;47.778;17.806;2022-12-29T11:26:28;6.70;99.90
47168;DHT22;32931;47.778;17.806;2022-12-29T11:31:46;6.80;99.90
47168;DHT22;32931;47.778;17.806;2022-12-29T11:34:24;6.80;99.90
47168;DHT22;32931;47.778;17.806;2022-12-29T11:36:54;6.90;99.90
47168;DHT22;32931;47.778;17.806;2022-12-29T11:42:14;7.00;99.90
47168;DHT22;32931;47.778;17.806;2022-12-29T11:44:48;7.00;99.90
47168;DHT22;32931;47.778;17.806;2022-12-29T11:47:42;7.00;99.90
47168;DHT22;32931;47.778;17.806;2022-12-29T11:50:18;7.00;99.90
47168;DHT22;32931;47.778;17.806;2022-12-29T11:52:45;7.10;99.90
47168;DHT22;32931;47.778;17.806;2022-12-29T11:55:21;7.10;99.90
47168;DHT22;32931;47.778;17.806;2022-12-29T11:57:51;7.20;99.90
47168;DHT22;32931;47.778;17.806;2022-12-29T12:00:20;7.20;99.90
47168;DHT22;32931;47.778;17.806;2022-12-29T12:05:40;7.20;99.90
47168;DHT22;32931;47.778;17.806;2022-12-29T12:11:10;7.30;99.90
47168;DHT22;32931;47.778;17.806;2022-12-29T12:13:39;7.30;99.90
47168;DHT22;32931;47.778;17.806;2022-12-29T12:16:37;7.30;99.90
47168;DHT22;32931;47.778;17.806;2022-12-29T12:21:51;7.40;99.90
47168;DHT22;32931;47.778;17.806;2022-12-29T12:27:26;7.50;99.90
47168;DHT22;32931;47.778;17.806;2022-12-29T12:30:14;7.50;99.90
47168;DHT22;32931;47.778;17.806;2022-12-29T12:32:52;7.50;99.90
47168;DHT22;32931;47.778;17.806;2022-12-29T12:37:50;7.60;99.90
47168;DHT22;32931;47.778;17.806;2022-12-29T12:49:51;7.60;99.90
47168;DHT22;32931;47.778;17.806;2022-12-29T12:52:33;7.70;99.90
47168;DHT22;32931;47.778;17.806;2022-12-29T13:00:18;7.70;99.90
47168;DHT22;32931;47.778;17.806;2022-12-29T13:03:05;7.70;99.90
47168;DHT22;32931;47.778;17.806;2022-12-29T13:19:51;7.80;99.90
47168;DHT22;32931;47.778;17.806;2022-12-29T13:22:28;7.90;99.90
47168;DHT22;32931;47.778;17.806;2022-12-29T13:25:05;7.90;99.90
47168;DHT22;32931;47.778;17.806;2022-12-29T13:27:44;7.90;99.90
47168;DHT22;32931;47.778;17.806;2022-12-29T13:30:29;7.90;99.90
47168;DHT22;32931;47.778;17.806;2022-12-29T13:41:02;8.00;99.90
47168;DHT22;32931;47.778;17.806;2022-12-29T13:43:31;8.00;99.90
47168;DHT22;32931;47.778;17.806;2022-12-29T13:46:18;8.00;99.90
47168;DHT22;32931;47.778;17.806;2022-12-29T13:49:06;8.00;99.90
47168;DHT22;32931;47.778;17.806;2022-12-29T13:51:40;8.00;99.90
47168;DHT22;32931;47.778;17.806;2022-12-29T14:02:33;7.90;99.90
47168;DHT22;32931;47.778;17.806;2022-12-29T14:05:26;7.90;99.90
47168;DHT22;32931;47.778;17.806;2022-12-29T14:08:00;7.90;99.90
47168;DHT22;32931;47.778;17.806;2022-12-29T14:10:38;7.80;99.90
47168;DHT22;32931;47.778;17.806;2022-12-29T14:13:19;7.90;99.90
47168;DHT22;32931;47.778;17.806;2022-12-29T14:15:57;7.80;99.90
47168;DHT22;32931;47.778;17.806;2022-12-29T14:18:28;7.80;99.90
47168;DHT22;32931;47.778;17.806;2022-12-29T14:21:07;7.80;99.90
47168;DHT22;32931;47.778;17.806;2022-12-29T14:23:42;7.80;99.90
47168;DHT22;32931;47.778;17.806;2022-12-29T14:28:48;7.70;99.90
47168;DHT22;32931;47.778;17.806;2022-12-29T14:36:41;7.70;99.90
47168;DHT22;32931;47.778;17.806;2022-12-29T14:44:49;7.50;99.90
47168;DHT22;32931;47.778;17.806;2022-12-29T14:49:48;7.50;99.90
47168;DHT22;32931;47.778;17.806;2022-12-29T14:52:21;7.40;99.90
47168;DHT22;32931;47.778;17.806;2022-12-29T14:55:38;7.40;99.90
47168;DHT22;32931;47.778;17.806;2022-12-29T14:57:43;7.40;99.90
47168;DHT22;32931;47.778;17.806;2022-12-29T15:00:23;7.30;99.90
47168;DHT22;32931;47.778;17.806;2022-12-29T15:05:44;7.20;99.90
47168;DHT22;32931;47.778;17.806;2022-12-29T15:08:13;7.10;99.90
47168;DHT22;32931;47.778;17.806;2022-12-29T15:10:53;7.10;99.90
47168;DHT22;32931;47.778;17.806;2022-12-29T15:13:24;7.00;99.90
47168;DHT22;32931;47.778;17.806;2022-12-29T15:15:51;7.00;99.90
47168;DHT22;32931;47.778;17.806;2022-12-29T15:18:22;6.90;99.90
47168;DHT22;32931;47.778;17.806;2022-12-29T15:20:53;6.90;99.90
47168;DHT22;32931;47.778;17.806;2022-12-29T15:23:20;6.80;99.90
47168;DHT22;32931;47.778;17.806;2022-12-29T15:25:54;6.80;99.90
47168;DHT22;32931;47.778;17.806;2022-12-29T15:28:21;6.80;99.90
47168;DHT22;32931;47.778;17.806;2022-12-29T15:31:03;6.70;99.90
47168;DHT22;32931;47.778;17.806;2022-12-29T15:33:30;6.70;99.90
47168;DHT22;32931;47.778;17.806;2022-12-29T15:36:03;6.70;99.90
47168;DHT22;32931;47.778;17.806;2022-12-29T15:38:30;6.70;99.90
47168;DHT22;32931;47.778;17.806;2022-12-29T15:41:02;6.60;99.90
47168;DHT22;32931;47.778;17.806;2022-12-29T15:43:42;6.60;99.90
47168;DHT22;32931;47.778;17.806;2022-12-29T15:46:11;6.70;99.90
47168;DHT22;32931;47.778;17.806;2022-12-29T15:48:38;6.60;99.90
47168;DHT22;32931;47.778;17.806;2022-12-29T15:51:30;6.60;99.90
47168;DHT22;32931;47.778;17.806;2022-12-29T15:53:59;6.70;99.90
47168;DHT22;32931;47.778;17.806;2022-12-29T15:56:28;6.60;99.90
47168;DHT22;32931;47.778;17.806;2022-12-29T15:58:55;6.60;99.90
47168;DHT22;32931;47.778;17.806;2022-12-29T16:01:28;6.60;99.90
47168;DHT22;32931;47.778;17.806;2022-12-29T16:03:59;6.60;99.90
47168;DHT22;32931;47.778;17.806;2022-12-29T16:06:30;6.60;99.90
47168;DHT22;32931;47.778;17.806;2022-12-29T16:09:17;6.60;99.90
47168;DHT22;32931;47.778;17.806;2022-12-29T16:11:50;6.60;99.90
47168;DHT22;32931;47.778;17.806;2022-12-29T16:14:21;6.50;99.90
47168;DHT22;32931;47.778;17.806;2022-12-29T16:16:49;6.50;99.90
47168;DHT22;32931;47.778;17.806;2022-12-29T16:21:45;6.50;99.90
47168;DHT22;32931;47.778;17.806;2022-12-29T16:24:15;6.50;99.90
47168;DHT22;32931;47.778;17.806;2022-12-29T16:27:09;6.50;99.90
47168;DHT22;32931;47.778;17.806;2022-12-29T16:29:34;6.50;99.90
47168;DHT22;32931;47.778;17.806;2022-12-29T16:32:01;6.50;99.90
47168;DHT22;32931;47.778;17.806;2022-12-29T16:34:42;6.50;99.90
47168;DHT22;32931;47.778;17.806;2022-12-29T16:37:29;6.50;99.90
47168;DHT22;32931;47.778;17.806;2022-12-29T16:39:56;6.40;99.90
47168;DHT22;32931;47.778;17.806;2022-12-29T16:47:39;6.40;99.90
47168;DHT22;32931;47.778;17.806;2022-12-29T16:50:15;6.40;99.90
47168;DHT22;32931;47.778;17.806;2022-12-29T16:52:43;6.40;99.90
47168;DHT22;32931;47.778;17.806;2022-12-29T16:55:18;6.40;99.90
47168;DHT22;32931;47.778;17.806;2022-12-29T16:57:46;6.30;99.90
47168;DHT22;32931;47.778;17.806;2022-12-29T17:00:26;6.30;99.90
47168;DHT22;32931;47.778;17.806;2022-12-29T17:02:56;6.30;99.90
47168;DHT22;32931;47.778;17.806;2022-12-29T17:05:23;6.30;99.90
47168;DHT22;32931;47.778;17.806;2022-12-29T17:07:49;6.30;99.90
47168;DHT22;32931;47.778;17.806;2022-12-29T17:10:17;6.20;99.90
47168;DHT22;32931;47.778;17.806;2022-12-29T17:12:44;6.20;99.90
47168;DHT22;32931;47.778;17.806;2022-12-29T17:15:18;6.20;99.90
47168;DHT22;32931;47.778;17.806;2022-12-29T17:17:48;6.20;99.90
47168;DHT22;32931;47.778;17.806;2022-12-29T17:20:20;6.10;99.90
47168;DHT22;32931;47.778;17.806;2022-12-29T17:22:48;6.10;99.90
47168;DHT22;32931;47.778;17.806;2022-12-29T17:25:18;6.00;99.90
47168;DHT22;32931;47.778;17.806;2022-12-29T17:28:23;5.90;99.90
47168;DHT22;32931;47.778;17.806;2022-12-29T17:30:49;5.90;99.90
47168;DHT22;32931;47.778;17.806;2022-12-29T17:33:19;5.80;99.90
47168;DHT22;32931;47.778;17.806;2022-12-29T17:35:46;5.70;99.90
47168;DHT22;32931;47.778;17.806;2022-12-29T17:38:21;5.70;99.90
47168;DHT22;32931;47.778;17.806;2022-12-29T17:40:49;5.70;99.90
47168;DHT22;32931;47.778;17.806;2022-12-29T17:43:15;5.60;99.90
47168;DHT22;32931;47.778;17.806;2022-12-29T17:45:43;5.50;99.90
47168;DHT22;32931;47.778;17.806;2022-12-29T17:48:12;5.50;99.90
47168;DHT22;32931;47.778;17.806;2022-12-29T17:50:39;5.40;99.90
47168;DHT22;32931;47.778;17.806;2022-12-29T17:53:10;5.40;99.90
47168;DHT22;32931;47.778;17.806;2022-12-29T17:55:37;5.40;99.90
47168;DHT22;32931;47.778;17.806;2022-12-29T17:58:23;5.30;99.90
47168;DHT22;32931;47.778;17.806;2022-12-29T18:00:52;5.30;99.90
47168;DHT22;32931;47.778;17.806;2022-12-29T18:03:29;5.20;99.90
47168;DHT22;32931;47.778;17.806;2022-12-29T18:05:56;5.20;99.90
47168;DHT22;32931;47.778;17.806;2022-12-29T18:08:23;5.10;99.90
47168;DHT22;32931;47.778;17.806;2022-12-29T18:10:53;5.10;99.90
47168;DHT22;32931;47.778;17.806;2022-12-29T18:13:25;5.10;99.90
47168;DHT22;32931;47.778;17.806;2022-12-29T18:15:52;5.00;99.90
47168;DHT22;32931;47.778;17.806;2022-12-29T18:18:25;4.90;99.90
47168;DHT22;32931;47.778;17.806;2022-12-29T18:20:54;4.90;99.90
47168;DHT22;32931;47.778;17.806;2022-12-29T18:23:23;4.90;99.90
47168;DHT22;32931;47.778;17.806;2022-12-29T18:25:55;4.90;99.90
47168;DHT22;32931;47.778;17.806;2022-12-29T18:28:24;4.90;99.90
47168;DHT22;32931;47.778;17.806;2022-12-29T18:30:51;4.80;99.90